Time;durP1;ratioP1;P1;durP2;ratioP2;P2;SDS_P1;SDS_P2;PMS_P1;PMS_P2;Temp;Humidity;BMP_temperature;BMP_pressure;BME280_temperature;BME280_humidity;BME280_pressure;Samples;Min_cycle;Max_cycle;Signal;HPM_P1;HPM_P2
2022/12/21 00:00:12;;;;;;;1999.90;999.90;;;;;;;;;;4980471;28;20238;-71
2022/12/21 00:02:41;;;;;;;1999.90;999.90;;;;;;;;;;4947307;28;20234;-71
2022/12/21 00:05:11;;;;;;;1999.90;999.90;;;;;;;;;;4974618;22;20238;31
2022/12/21 00:07:41;;;;;;;1999.90;999.90;;;;;;;;;;4961987;28;20716;-71
2022/12/21 00:10:10;;;;;;;1999.90;999.90;;;;;;;;;;4957004;28;20318;-71
2022/12/21 00:12:37;;;;;;;1999.90;999.90;;;;;;;;;;4964934;28;20235;-71
2022/12/21 00:15:06;;;;;;;1999.90;999.90;;;;;;;;;;4947292;28;20712;-70
2022/12/21 00:17:34;;;;;;;1999.90;999.90;;;;;;;;;;4953209;28;20265;-71
2022/12/21 00:20:09;;;;;;;1999.90;999.90;;;;;;;;;;4947988;28;20227;-73
2022/12/21 00:22:37;;;;;;;1999.90;999.90;;;;;;;;;;4940830;28;20227;-71
2022/12/21 00:25:07;;;;;;;1999.90;999.90;;;;;;;;;;4948514;28;20239;-71
2022/12/21 00:27:35;;;;;;;1999.90;999.90;;;;;;;;;;4948924;28;20791;-71
2022/12/21 00:30:04;;;;;;;1999.90;999.90;;;;;;;;;;4933264;28;20286;-71
2022/12/21 00:32:32;;;;;;;1999.90;999.90;;;;;;;;;;4952865;28;20238;-70
2022/12/21 00:35:00;;;;;;;1999.90;999.90;;;;;;;;;;4955580;28;20237;-70
2022/12/21 00:37:29;;;;;;;1999.90;999.90;;;;;;;;;;4955512;28;20751;-70
2022/12/21 00:39:57;;;;;;;1999.90;999.90;;;;;;;;;;4963045;28;20313;-70
2022/12/21 00:42:26;;;;;;;1999.90;999.90;;;;;;;;;;4966203;28;20254;-70
2022/12/21 00:44:54;;;;;;;1999.90;999.90;;;;;;;;;;4951062;28;20730;-72
2022/12/21 00:47:22;;;;;;;1999.90;999.90;;;;;;;;;;4934291;28;20228;-71
2022/12/21 00:49:50;;;;;;;1999.90;999.90;;;;;;;;;;4957564;28;20664;-70
2022/12/21 00:52:18;;;;;;;1999.90;999.90;;;;;;;;;;4948707;28;20784;-70
2022/12/21 00:54:46;;;;;;;1999.90;999.90;;;;;;;;;;4958506;28;20244;-71
2022/12/21 00:57:14;;;;;;;1999.90;999.90;;;;;;;;;;4945571;28;20236;-70
2022/12/21 00:59:44;;;;;;;1999.90;999.90;;;;;;;;;;4938182;28;20235;-70
2022/12/21 01:02:12;;;;;;;1999.90;999.90;;;;;;;;;;4948931;28;20366;-70
2022/12/21 01:04:43;;;;;;;1999.90;999.90;;;;;;;;;;4961488;28;20231;-71
2022/12/21 01:07:11;;;;;;;1999.90;999.90;;;;;;;;;;4960878;28;20321;-71
2022/12/21 01:09:41;;;;;;;1999.90;999.90;;;;;;;;;;4935090;28;20234;-70
2022/12/21 01:12:09;;;;;;;1999.90;999.90;;;;;;;;;;4931406;28;20297;-70
2022/12/21 01:14:38;;;;;;;1999.90;999.90;;;;;;;;;;4936324;28;20718;-71
2022/12/21 01:17:07;;;;;;;1999.90;999.90;;;;;;;;;;4945264;28;20792;-71
2022/12/21 01:19:35;;;;;;;1999.90;999.90;;;;;;;;;;4923352;28;20227;-72
2022/12/21 01:22:03;;;;;;;1999.90;999.90;;;;;;;;;;4912912;28;20728;-71
2022/12/21 01:24:31;;;;;;;1999.90;999.90;;;;;;;;;;4945436;28;20223;-71
2022/12/21 01:27:01;;;;;;;1999.90;999.90;;;;;;;;;;4942384;28;22083;-71
2022/12/21 01:29:32;;;;;;;1999.90;999.90;;;;;;;;;;4924195;28;20654;-72
2022/12/21 01:32:00;;;;;;;1999.90;999.90;;;;;;;;;;4947437;28;20654;-72
2022/12/21 01:34:30;;;;;;;1999.90;999.90;;;;;;;;;;4946135;28;20249;-72
2022/12/21 01:36:58;;;;;;;1999.90;999.90;;;;;;;;;;4958233;28;21706;-72
2022/12/21 01:39:29;;;;;;;1999.90;999.90;;;;;;;;;;4927397;28;20327;-72
2022/12/21 01:41:57;;;;;;;1999.90;999.90;;;;;;;;;;4963270;28;20234;-72
2022/12/21 01:44:44;;;;;;;1999.90;999.90;;;;;;;;;;4937320;28;20234;-72
2022/12/21 01:47:14;;;;;;;1999.90;999.90;;;;;;;;;;4922969;28;20238;-71
2022/12/21 01:49:46;;;;;;;1999.90;999.90;;;;;;;;;;4924511;28;20234;-70
2022/12/21 01:52:15;;;;;;;1999.90;999.90;;;;;;;;;;4949666;28;20231;-71
2022/12/21 01:54:47;;;;;;;1999.90;999.90;;;;;;;;;;4924107;28;21078;-70
2022/12/21 01:57:24;;;;;;;1999.90;999.90;;;;;;;;;;4950546;28;20314;-71
2022/12/21 01:59:55;;;;;;;1999.90;999.90;;;;;;;;;;4950754;28;20239;-70
2022/12/21 02:02:32;;;;;;;1999.90;999.90;;;;;;;;;;4966360;28;20231;-70
2022/12/21 02:05:07;;;;;;;1999.90;999.90;;;;;;;;;;4965010;28;20230;-71
2022/12/21 02:07:35;;;;;;;1999.90;999.90;;;;;;;;;;4967530;28;20262;-70
2022/12/21 02:10:04;;;;;;;1999.90;999.90;;;;;;;;;;4949845;28;20231;-70
2022/12/21 02:12:32;;;;;;;1999.90;999.90;;;;;;;;;;4950688;28;20298;-72
2022/12/21 02:15:00;;;;;;;1999.90;999.90;;;;;;;;;;4953403;28;20776;-71
2022/12/21 02:17:34;;;;;;;1999.90;999.90;;;;;;;;;;4945796;28;20881;-71
2022/12/21 02:20:23;;;;;;;1999.90;999.90;;;;;;;;;;4964116;28;20399;-71
2022/12/21 02:22:57;;;;;;;1999.90;999.90;;;;;;;;;;4947460;28;20322;-71
2022/12/21 02:25:36;;;;;;;1999.90;999.90;;;;;;;;;;4949144;28;20235;-71
2022/12/21 02:28:25;;;;;;;1999.90;999.90;;;;;;;;;;4933693;28;20235;-71
2022/12/21 02:30:59;;;;;;;1999.90;999.90;;;;;;;;;;4924753;28;20246;-72
2022/12/21 02:33:32;;;;;;;1999.90;999.90;;;;;;;;;;4931928;28;20227;-71
2022/12/21 02:36:07;;;;;;;1999.90;999.90;;;;;;;;;;4932903;28;20235;-71
2022/12/21 02:38:44;;;;;;;1999.90;999.90;;;;;;;;;;4948890;28;20297;-71
2022/12/21 02:41:16;;;;;;;1999.90;999.90;;;;;;;;;;4963559;28;20463;-71
2022/12/21 02:46:36;;;;;;;1999.90;999.90;;;;;;;;;;4949465;28;21011;-71
2022/12/21 02:49:06;;;;;;;1999.90;999.90;;;;;;;;;;4932700;28;20231;-71
2022/12/21 02:51:37;;;;;;;1999.90;999.90;;;;;;;;;;4950737;28;20278;-71
2022/12/21 02:54:06;;;;;;;1999.90;999.90;;;;;;;;;;4937970;28;20231;-71
2022/12/21 02:56:34;;;;;;;1999.90;999.90;;;;;;;;;;4948832;28;20760;-71
2022/12/21 02:59:13;;;;;;;1999.90;999.90;;;;;;;;;;5100958;27;20616;-72
2022/12/21 03:01:52;;;;;;;1999.90;999.90;;;;;;;;;;5097520;27;20684;-71
2022/12/21 03:04:35;;;;;;;1999.90;999.90;;;;;;;;;;5101399;27;20276;-72
2022/12/21 03:07:12;;;;;;;1999.90;999.90;;;;;;;;;;5084732;27;20688;-71
2022/12/21 03:09:49;;;;;;;1999.90;999.90;;;;;;;;;;5087725;28;20254;-72
2022/12/21 03:12:27;;;;;;;1999.90;999.90;;;;;;;;;;5084798;27;20226;-71
2022/12/21 03:15:01;;;;;;;1999.90;999.90;;;;;;;;;;5101695;27;21685;-71
2022/12/21 03:17:32;;;;;;;1999.90;999.90;;;;;;;;;;5105210;27;20299;-71
2022/12/21 03:20:05;;;;;;;1999.90;999.90;;;;;;;;;;5102001;27;20691;-71
2022/12/21 03:22:35;;;;;;;1999.90;999.90;;;;;;;;;;5100088;27;20523;-72
2022/12/21 03:25:07;;;;;;;1999.90;999.90;;;;;;;;;;5099521;27;20873;-71
2022/12/21 03:27:37;;;;;;;1999.90;999.90;;;;;;;;;;5099894;27;20413;-72
2022/12/21 03:30:09;;;;;;;1999.90;999.90;;;;;;;;;;5097762;27;20469;-72
2022/12/21 03:32:40;;;;;;;1999.90;999.90;;;;;;;;;;5073728;28;20825;-71
2022/12/21 03:35:12;;;;;;;1999.90;999.90;;;;;;;;;;5099109;27;20528;-71
2022/12/21 03:37:41;;;;;;;1999.90;999.90;;;;;;;;;;5087756;27;20235;-73
2022/12/21 03:40:11;;;;;;;1999.90;999.90;;;;;;;;;;5079005;27;20724;-72
2022/12/21 03:42:41;;;;;;;1999.90;999.90;;;;;;;;;;5098302;27;20226;-71
2022/12/21 03:45:12;;;;;;;1999.90;999.90;;;;;;;;;;5097765;27;20233;-71
2022/12/21 03:47:44;;;;;;;1999.90;999.90;;;;;;;;;;5077919;28;21072;-71
2022/12/21 03:50:15;;;;;;;1999.90;999.90;;;;;;;;;;5078645;27;20226;-71
2022/12/21 03:52:45;;;;;;;1999.90;999.90;;;;;;;;;;5098761;27;20226;-72
2022/12/21 03:55:15;;;;;;;1999.90;999.90;;;;;;;;;;5080612;27;20847;-71
2022/12/21 03:57:44;;;;;;;1999.90;999.90;;;;;;;;;;5098567;27;20230;-72
2022/12/21 04:00:14;;;;;;;1999.90;999.90;;;;;;;;;;5082793;27;20237;-72
2022/12/21 04:02:47;;;;;;;1999.90;999.90;;;;;;;;;;5101153;27;20233;-72
2022/12/21 04:05:17;;;;;;;1999.90;999.90;;;;;;;;;;5100655;27;20233;-71
2022/12/21 04:07:47;;;;;;;1999.90;999.90;;;;;;;;;;5101613;27;20219;-71
2022/12/21 04:10:16;;;;;;;1999.90;999.90;;;;;;;;;;5065802;28;20227;-70
2022/12/21 04:12:43;;;;;;;1999.90;999.90;;;;;;;;;;5072623;28;20231;-71
2022/12/21 04:15:12;;;;;;;1999.90;999.90;;;;;;;;;;5086539;28;20293;-71
2022/12/21 04:17:42;;;;;;;1999.90;999.90;;;;;;;;;;5086896;28;20255;-72
2022/12/21 04:20:11;;;;;;;1999.90;999.90;;;;;;;;;;5081419;28;20380;-71
2022/12/21 04:28:14;;;;;;;1999.90;999.90;;;;;;;;;;5083428;28;20227;-70
2022/12/21 04:31:02;;;;;;;1999.90;999.90;;;;;;;;;;5083063;28;20759;-71
2022/12/21 04:33:32;;;;;;;1999.90;999.90;;;;;;;;;;5086227;28;20292;-71
2022/12/21 04:38:45;;;;;;;1999.90;999.90;;;;;;;;;;5086042;28;20278;-71
2022/12/21 04:41:13;;;;;;;1999.90;999.90;;;;;;;;;;5071473;28;20346;-72
2022/12/21 04:43:41;;;;;;;1999.90;999.90;;;;;;;;;;5084152;28;20227;-71
2022/12/21 04:46:11;;;;;;;1999.90;999.90;;;;;;;;;;5049189;28;20238;-71
2022/12/21 04:48:41;;;;;;;1999.90;999.90;;;;;;;;;;5042115;28;20716;-72
2022/12/21 04:51:11;;;;;;;1999.90;999.90;;;;;;;;;;5071579;28;20231;-73
2022/12/21 04:53:39;;;;;;;1999.90;999.90;;;;;;;;;;5072806;28;20238;-72
2022/12/21 04:56:08;;;;;;;1999.90;999.90;;;;;;;;;;5081337;28;20251;-72
2022/12/21 04:58:36;;;;;;;1999.90;999.90;;;;;;;;;;5080009;28;20242;-71
2022/12/21 05:01:08;;;;;;;1999.90;999.90;;;;;;;;;;5081112;28;20235;-72
2022/12/21 05:03:36;;;;;;;1999.90;999.90;;;;;;;;;;5083130;28;20785;-71
2022/12/21 05:06:06;;;;;;;1999.90;999.90;;;;;;;;;;5081180;28;20235;-71
2022/12/21 05:08:34;;;;;;;1999.90;999.90;;;;;;;;;;5083151;28;20239;-71
2022/12/21 05:11:10;;;;;;;1999.90;999.90;;;;;;;;;;5084960;28;20231;-72
2022/12/21 05:13:38;;;;;;;1999.90;999.90;;;;;;;;;;5085616;28;20500;-71
2022/12/21 05:16:06;;;;;;;1999.90;999.90;;;;;;;;;;5076645;28;20227;-71
2022/12/21 05:18:34;;;;;;;1999.90;999.90;;;;;;;;;;5067999;28;20323;-71
2022/12/21 05:21:02;;;;;;;1999.90;999.90;;;;;;;;;;5077243;28;20227;-71
2022/12/21 05:23:31;;;;;;;1999.90;999.90;;;;;;;;;;5086121;28;20263;-71
2022/12/21 05:26:01;;;;;;;1999.90;999.90;;;;;;;;;;5081041;28;20297;-72
2022/12/21 05:28:40;;;;;;;1999.90;999.90;;;;;;;;;;5084019;28;20227;-71
2022/12/21 05:31:09;;;;;;;1999.90;999.90;;;;;;;;;;5076092;28;20241;-72
2022/12/21 05:33:37;;;;;;;1999.90;999.90;;;;;;;;;;5082485;28;20227;-68
2022/12/21 05:36:06;;;;;;;1999.90;999.90;;;;;;;;;;5062959;28;20231;-71
2022/12/21 05:38:35;;;;;;;1999.90;999.90;;;;;;;;;;5077790;28;20235;-70
2022/12/21 05:41:03;;;;;;;1999.90;999.90;;;;;;;;;;5086830;28;20288;-71
2022/12/21 05:43:32;;;;;;;1999.90;999.90;;;;;;;;;;5087215;28;20230;-71
2022/12/21 05:46:01;;;;;;;1999.90;999.90;;;;;;;;;;5086131;28;20308;-71
2022/12/21 05:48:29;;;;;;;1999.90;999.90;;;;;;;;;;5085733;28;20228;-71
2022/12/21 05:50:57;;;;;;;1999.90;999.90;;;;;;;;;;5073104;28;20292;-71
2022/12/21 05:53:25;;;;;;;1999.90;999.90;;;;;;;;;;5082146;28;20223;-72
2022/12/21 05:55:55;;;;;;;1999.90;999.90;;;;;;;;;;5082950;28;20743;-72
2022/12/21 05:58:23;;;;;;;1999.90;999.90;;;;;;;;;;5098621;27;20231;-71
2022/12/21 06:00:52;;;;;;;1999.90;999.90;;;;;;;;;;5081691;28;20652;-72
2022/12/21 06:03:21;;;;;;;1999.90;999.90;;;;;;;;;;5066336;28;20230;-71
2022/12/21 06:05:49;;;;;;;1999.90;999.90;;;;;;;;;;5066726;28;20318;-72
2022/12/21 06:08:17;;;;;;;1999.90;999.90;;;;;;;;;;5083509;28;20227;-71
2022/12/21 06:10:46;;;;;;;1999.90;999.90;;;;;;;;;;5084591;28;20238;-72
2022/12/21 06:13:15;;;;;;;1999.90;999.90;;;;;;;;;;5082555;28;20235;-71
2022/12/21 06:15:48;;;;;;;1999.90;999.90;;;;;;;;;;5046484;22;20247;-71
2022/12/21 06:18:16;;;;;;;1999.90;999.90;;;;;;;;;;4984851;28;20616;-71
2022/12/21 06:20:51;;;;;;;1999.90;999.90;;;;;;;;;;4975462;28;20316;-73
2022/12/21 06:23:19;;;;;;;1999.90;999.90;;;;;;;;;;5000718;28;20675;-71
2022/12/21 06:25:47;;;;;;;1999.90;999.90;;;;;;;;;;5002667;28;20244;-72
2022/12/21 06:28:16;;;;;;;1999.90;999.90;;;;;;;;;;5000218;28;20342;-74
2022/12/21 06:30:44;;;;;;;1999.90;999.90;;;;;;;;;;5002440;28;20237;-74
2022/12/21 06:33:12;;;;;;;1999.90;999.90;;;;;;;;;;4995437;28;20965;-75
2022/12/21 06:35:40;;;;;;;1999.90;999.90;;;;;;;;;;4993140;28;20252;-71
2022/12/21 06:38:08;;;;;;;1999.90;999.90;;;;;;;;;;4996847;28;20240;-72
2022/12/21 06:40:36;;;;;;;1999.90;999.90;;;;;;;;;;5000390;28;20274;-73
2022/12/21 06:43:04;;;;;;;1999.90;999.90;;;;;;;;;;4982803;28;20233;-73
2022/12/21 06:45:33;;;;;;;1999.90;999.90;;;;;;;;;;4997120;28;22018;-74
2022/12/21 06:48:01;;;;;;;1999.90;999.90;;;;;;;;;;4999609;28;20292;-75
2022/12/21 06:50:31;;;;;;;1999.90;999.90;;;;;;;;;;4980148;28;20289;-73
2022/12/21 06:52:59;;;;;;;1999.90;999.90;;;;;;;;;;4999739;28;20292;-72
2022/12/21 06:55:27;;;;;;;1999.90;999.90;;;;;;;;;;4986101;28;20257;-72
2022/12/21 06:57:55;;;;;;;1999.90;999.90;;;;;;;;;;5002491;28;20292;-71
2022/12/21 07:00:23;;;;;;;1999.90;999.90;;;;;;;;;;5000950;28;20241;-73
2022/12/21 07:02:52;;;;;;;1999.90;999.90;;;;;;;;;;4974497;28;20229;-74
2022/12/21 07:05:21;;;;;;;1999.90;999.90;;;;;;;;;;4985728;28;20230;-72
2022/12/21 07:07:48;;;;;;;1999.90;999.90;;;;;;;;;;5003030;28;20230;-72
2022/12/21 07:10:17;;;;;;;1999.90;999.90;;;;;;;;;;5003581;28;20237;-73
2022/12/21 07:12:45;;;;;;;1999.90;999.90;;;;;;;;;;5000542;28;20279;-71
2022/12/21 07:15:13;;;;;;;1999.90;999.90;;;;;;;;;;4999742;28;20241;-71
2022/12/21 07:17:41;;;;;;;1999.90;999.90;;;;;;;;;;5005599;28;20311;-72
2022/12/21 07:20:10;;;;;;;1999.90;999.90;;;;;;;;;;5006600;28;20292;-75
2022/12/21 07:22:38;;;;;;;1999.90;999.90;;;;;;;;;;5010611;28;20719;-72
2022/12/21 07:25:06;;;;;;;1999.90;999.90;;;;;;;;;;5003631;28;20787;-74
2022/12/21 07:27:34;;;;;;;1999.90;999.90;;;;;;;;;;5004641;28;20265;-72
2022/12/21 07:30:02;;;;;;;1999.90;999.90;;;;;;;;;;5005632;28;20249;-75
2022/12/21 07:32:30;;;;;;;1999.90;999.90;;;;;;;;;;4972335;28;20244;-73
2022/12/21 07:34:58;;;;;;;1999.90;999.90;;;;;;;;;;4984881;28;20888;-73
2022/12/21 07:37:29;;;;;;;1999.90;999.90;;;;;;;;;;4996099;28;21240;-73
2022/12/21 07:39:57;;;;;;;1999.90;999.90;;;;;;;;;;5010562;28;20768;-75
2022/12/21 07:42:25;;;;;;;1999.90;999.90;;;;;;;;;;4996456;28;21873;-73
2022/12/21 07:45:04;;;;;;;1999.90;999.90;;;;;;;;;;4980231;28;20314;-73
2022/12/21 07:47:38;;;;;;;1999.90;999.90;;;;;;;;;;4981572;28;20360;-71
2022/12/21 07:50:07;;;;;;;1999.90;999.90;;;;;;;;;;4998817;28;20241;-72
2022/12/21 07:52:38;;;;;;;1999.90;999.90;;;;;;;;;;5000812;28;20233;-74
2022/12/21 07:55:07;;;;;;;1999.90;999.90;;;;;;;;;;5004248;28;20228;-72
2022/12/21 07:57:35;;;;;;;1999.90;999.90;;;;;;;;;;4989236;28;20292;-75
2022/12/21 08:00:03;;;;;;;1999.90;999.90;;;;;;;;;;5004717;28;20265;-72
2022/12/21 08:02:39;;;;;;;1999.90;999.90;;;;;;;;;;5007562;28;20233;-73
2022/12/21 08:05:07;;;;;;;1999.90;999.90;;;;;;;;;;4994610;28;20234;-73
2022/12/21 08:07:37;;;;;;;1999.90;999.90;;;;;;;;;;4991199;28;20650;-73
2022/12/21 08:10:06;;;;;;;1999.90;999.90;;;;;;;;;;5003400;28;20279;-74
2022/12/21 08:12:34;;;;;;;1999.90;999.90;;;;;;;;;;4993043;28;20233;-71
2022/12/21 08:15:02;;;;;;;1999.90;999.90;;;;;;;;;;5005040;28;20336;-72
2022/12/21 08:17:30;;;;;;;1999.90;999.90;;;;;;;;;;5005912;28;20724;-76
2022/12/21 08:19:58;;;;;;;1999.90;999.90;;;;;;;;;;5007678;28;20320;-74
2022/12/21 08:22:26;;;;;;;1999.90;999.90;;;;;;;;;;5007339;28;20232;-74
2022/12/21 08:24:55;;;;;;;1999.90;999.90;;;;;;;;;;5006750;28;20230;-73
2022/12/21 08:27:24;;;;;;;1999.90;999.90;;;;;;;;;;4989859;28;20660;-74
2022/12/21 08:29:51;;;;;;;1999.90;999.90;;;;;;;;;;5008015;28;20256;-72
2022/12/21 08:32:19;;;;;;;1999.90;999.90;;;;;;;;;;5004786;28;20229;-71
2022/12/21 08:34:47;;;;;;;1999.90;999.90;;;;;;;;;;5005210;28;20321;-72
2022/12/21 08:37:19;;;;;;;1999.90;999.90;;;;;;;;;;4993487;28;20297;-72
2022/12/21 08:39:47;;;;;;;1999.90;999.90;;;;;;;;;;4988290;28;20281;-73
2022/12/21 08:42:16;;;;;;;1999.90;999.90;;;;;;;;;;5002755;28;20323;-71
2022/12/21 08:44:44;;;;;;;1999.90;999.90;;;;;;;;;;5003783;28;20226;-73
2022/12/21 08:47:12;;;;;;;1999.90;999.90;;;;;;;;;;5001484;28;20230;-71
2022/12/21 08:49:40;;;;;;;1999.90;999.90;;;;;;;;;;5004337;28;20237;-72
2022/12/21 08:52:08;;;;;;;1999.90;999.90;;;;;;;;;;5003283;28;20292;-71
2022/12/21 08:54:36;;;;;;;1999.90;999.90;;;;;;;;;;5002911;28;20254;-72
2022/12/21 08:57:04;;;;;;;1999.90;999.90;;;;;;;;;;4992166;28;20234;-74
2022/12/21 08:59:33;;;;;;;1999.90;999.90;;;;;;;;;;4987013;28;20252;-74
2022/12/21 09:02:01;;;;;;;1999.90;999.90;;;;;;;;;;5000602;28;20238;-73
2022/12/21 09:04:29;;;;;;;1999.90;999.90;;;;;;;;;;5002603;28;20744;-73
2022/12/21 09:06:58;;;;;;;1999.90;999.90;;;;;;;;;;4994042;28;20705;-72
2022/12/21 09:09:26;;;;;;;1999.90;999.90;;;;;;;;;;5000350;28;20230;-72
2022/12/21 09:11:54;;;;;;;1999.90;999.90;;;;;;;;;;5004296;28;20290;-74
2022/12/21 09:14:22;;;;;;;1999.90;999.90;;;;;;;;;;4984791;28;20284;-74
2022/12/21 09:16:52;;;;;;;1999.90;999.90;;;;;;;;;;4983857;28;20317;-75
2022/12/21 09:19:20;;;;;;;1999.90;999.90;;;;;;;;;;5000136;28;20261;-72
2022/12/21 09:21:48;;;;;;;1999.90;999.90;;;;;;;;;;5000329;28;20249;-73
2022/12/21 09:24:17;;;;;;;1999.90;999.90;;;;;;;;;;4987819;28;20262;-72
2022/12/21 09:26:45;;;;;;;1999.90;999.90;;;;;;;;;;4996182;28;20233;-74
2022/12/21 09:29:13;;;;;;;1999.90;999.90;;;;;;;;;;4985532;28;20241;-72
2022/12/21 09:31:41;;;;;;;1999.90;999.90;;;;;;;;;;4988783;28;20222;-72
2022/12/21 09:34:11;;;;;;;1999.90;999.90;;;;;;;;;;5003489;28;20230;-71
2022/12/21 09:36:39;;;;;;;1999.90;999.90;;;;;;;;;;4976321;28;20672;-72
2022/12/21 09:39:27;;;;;;;1999.90;999.90;;;;;;;;;;4987507;28;20258;-73
2022/12/21 09:42:02;;;;;;;1999.90;999.90;;;;;;;;;;4987762;28;20248;-71
2022/12/21 09:44:37;;;;;;;1999.90;999.90;;;;;;;;;;5001993;28;20229;-72
2022/12/21 09:47:09;;;;;;;1999.90;999.90;;;;;;;;;;4997636;28;20228;-74
2022/12/21 09:49:41;;;;;;;1999.90;999.90;;;;;;;;;;5003197;28;20291;-74
2022/12/21 09:52:15;;;;;;;1999.90;999.90;;;;;;;;;;5000473;28;20234;-71
2022/12/21 09:54:44;;;;;;;1999.90;999.90;;;;;;;;;;5002837;28;20828;-72
2022/12/21 09:57:14;;;;;;;1999.90;999.90;;;;;;;;;;5001845;28;20377;-75
2022/12/21 09:59:42;;;;;;;1999.90;999.90;;;;;;;;;;5001199;28;20245;-72
2022/12/21 10:02:15;;;;;;;1999.90;999.90;;;;;;;;;;5021305;28;21076;-72
2022/12/21 10:04:52;;;;;;;1999.90;999.90;;;;;;;;;;5004609;28;20229;-71
2022/12/21 10:07:57;;;;;;;1999.90;999.90;;;;;;;;;;5005028;28;20539;-73
2022/12/21 10:10:31;;;;;;;1999.90;999.90;;;;;;;;;;5002325;28;20230;-73
2022/12/21 10:13:02;;;;;;;1999.90;999.90;;;;;;;;;;4998553;28;20234;-74
2022/12/21 10:15:32;;;;;;;1999.90;999.90;;;;;;;;;;5000224;28;20711;-72
2022/12/21 10:18:08;;;;;;;1999.90;999.90;;;;;;;;;;4965154;28;20815;-74
2022/12/21 10:20:57;;;;;;;1999.90;999.90;;;;;;;;;;4971756;28;20232;-72
2022/12/21 10:23:28;;;;;;;1999.90;999.90;;;;;;;;;;4995954;28;20226;-72
2022/12/21 10:25:57;;;;;;;1999.90;999.90;;;;;;;;;;4997338;28;20257;-73
2022/12/21 10:28:36;;;;;;;1999.90;999.90;;;;;;;;;;4998742;28;20226;-73
2022/12/21 10:31:05;;;;;;;1999.90;999.90;;;;;;;;;;4996904;28;20233;-74
2022/12/21 10:33:34;;;;;;;1999.90;999.90;;;;;;;;;;4997301;28;20619;-71
2022/12/21 10:36:04;;;;;;;1999.90;999.90;;;;;;;;;;4986824;28;20317;-72
2022/12/21 10:38:34;;;;;;;1999.90;999.90;;;;;;;;;;4999509;28;20234;-72
2022/12/21 10:41:03;;;;;;;1999.90;999.90;;;;;;;;;;4998630;28;20792;-71
2022/12/21 10:43:34;;;;;;;1999.90;999.90;;;;;;;;;;4985672;28;21225;-71
2022/12/21 10:46:02;;;;;;;1999.90;999.90;;;;;;;;;;4998673;28;20802;-71
2022/12/21 10:48:30;;;;;;;1999.90;999.90;;;;;;;;;;4982713;28;20269;-72
2022/12/21 10:51:02;;;;;;;1999.90;999.90;;;;;;;;;;4995980;28;20226;-69
2022/12/21 10:53:30;;;;;;;1999.90;999.90;;;;;;;;;;5009361;28;20698;-72
2022/12/21 10:56:00;;;;;;;1999.90;999.90;;;;;;;;;;4998286;28;20261;-67
2022/12/21 10:58:29;;;;;;;1999.90;999.90;;;;;;;;;;4999101;28;20312;-70
2022/12/21 11:00:59;;;;;;;1999.90;999.90;;;;;;;;;;5001304;28;20312;-72
2022/12/21 11:03:29;;;;;;;1999.90;999.90;;;;;;;;;;5001547;28;20658;-70
2022/12/21 11:05:57;;;;;;;1999.90;999.90;;;;;;;;;;4999693;28;20312;-71
2022/12/21 11:08:27;;;;;;;1999.90;999.90;;;;;;;;;;4999334;28;20230;-70
2022/12/21 11:10:56;;;;;;;1999.90;999.90;;;;;;;;;;5001936;28;20233;-71
2022/12/21 11:13:26;;;;;;;1999.90;999.90;;;;;;;;;;5001871;28;20230;-72
2022/12/21 11:16:06;;;;;;;1999.90;999.90;;;;;;;;;;5001135;28;21165;-71
2022/12/21 11:18:36;;;;;;;1999.90;999.90;;;;;;;;;;4999105;28;20312;-72
2022/12/21 11:21:05;;;;;;;1999.90;999.90;;;;;;;;;;4995928;28;20257;-71
2022/12/21 11:23:34;;;;;;;1999.90;999.90;;;;;;;;;;5021164;28;21692;-72
2022/12/21 11:26:02;;;;;;;1999.90;999.90;;;;;;;;;;5003253;28;20256;-71
2022/12/21 11:28:31;;;;;;;1999.90;999.90;;;;;;;;;;5009545;28;20234;-71
2022/12/21 11:31:02;;;;;;;1999.90;999.90;;;;;;;;;;5005702;28;22873;-72
2022/12/21 11:33:30;;;;;;;1999.90;999.90;;;;;;;;;;4997470;28;20716;-72
2022/12/21 11:36:09;;;;;;;1999.90;999.90;;;;;;;;;;5003480;28;20244;-71
2022/12/21 11:38:38;;;;;;;1999.90;999.90;;;;;;;;;;5016885;28;20233;-73
2022/12/21 11:41:10;;;;;;;1999.90;999.90;;;;;;;;;;5002281;28;20292;-71
2022/12/21 11:43:49;;;;;;;1999.90;999.90;;;;;;;;;;5006754;28;20237;-71
2022/12/21 11:46:30;;;;;;;1999.90;999.90;;;;;;;;;;5002060;28;20229;-72
2022/12/21 11:49:28;;;;;;;1999.90;999.90;;;;;;;;;;5004160;28;21485;-74
2022/12/21 11:52:02;;;;;;;1999.90;999.90;;;;;;;;;;5010089;28;20229;-71
2022/12/21 11:54:37;;;;;;;1999.90;999.90;;;;;;;;;;5006171;28;20344;-71
2022/12/21 11:57:08;;;;;;;1999.90;999.90;;;;;;;;;;5003025;28;20233;-72
2022/12/21 11:59:44;;;;;;;1999.90;999.90;;;;;;;;;;5003002;28;20237;-72
2022/12/21 12:02:24;;;;;;;1999.90;999.90;;;;;;;;;;5001524;28;20328;-71
2022/12/21 12:05:01;;;;;;;1999.90;999.90;;;;;;;;;;5001141;28;20316;-72
2022/12/21 12:07:37;;;;;;;1999.90;999.90;;;;;;;;;;5002427;28;21519;-72
2022/12/21 12:10:14;;;;;;;1999.90;999.90;;;;;;;;;;4997031;28;20248;-73
2022/12/21 12:12:48;;;;;;;1999.90;999.90;;;;;;;;;;4999460;28;20230;-71
2022/12/21 12:15:34;;;;;;;1999.90;999.90;;;;;;;;;;5002845;28;20694;-72
2022/12/21 12:18:09;;;;;;;1999.90;999.90;;;;;;;;;;4987393;28;20226;-70
2022/12/21 12:20:48;;;;;;;1999.90;999.90;;;;;;;;;;4997764;28;20237;-73
2022/12/21 12:23:21;;;;;;;1999.90;999.90;;;;;;;;;;5000956;28;20237;-72
2022/12/21 12:26:07;;;;;;;1999.90;999.90;;;;;;;;;;4989196;28;20229;-72
2022/12/21 12:28:53;;;;;;;1999.90;999.90;;;;;;;;;;4999013;28;20230;-72
2022/12/21 12:31:29;;;;;;;1999.90;999.90;;;;;;;;;;5004282;28;20320;-71
2022/12/21 12:34:07;;;;;;;1999.90;999.90;;;;;;;;;;5000092;28;21025;-70
2022/12/21 12:36:39;;;;;;;1999.90;999.90;;;;;;;;;;5017766;28;20292;-71
2022/12/21 12:39:10;;;;;;;1999.90;999.90;;;;;;;;;;5013723;28;20838;-74
2022/12/21 12:41:45;;;;;;;1999.90;999.90;;;;;;;;;;5004344;28;20925;-72
2022/12/21 12:44:18;;;;;;;1999.90;999.90;;;;;;;;;;4986744;28;20237;-72
2022/12/21 12:46:52;;;;;;;1999.90;999.90;;;;;;;;;;5004335;28;20226;-72
2022/12/21 12:49:28;;;;;;;1999.90;999.90;;;;;;;;;;5003671;28;21157;-69
2022/12/21 12:52:01;;;;;;;1999.90;999.90;;;;;;;;;;5002793;28;20229;-69
2022/12/21 12:54:32;;;;;;;1999.90;999.90;;;;;;;;;;4987497;28;20341;-70
2022/12/21 12:57:05;;;;;;;1999.90;999.90;;;;;;;;;;4992964;28;20321;-69
2022/12/21 12:59:35;;;;;;;1999.90;999.90;;;;;;;;;;5001103;28;20770;-69
2022/12/21 13:02:08;;;;;;;1999.90;999.90;;;;;;;;;;4986383;28;20236;-71
2022/12/21 13:04:50;;;;;;;1999.90;999.90;;;;;;;;;;4982496;28;21317;-72
2022/12/21 13:07:24;;;;;;;1999.90;999.90;;;;;;;;;;4974551;28;20725;-72
2022/12/21 13:09:55;;;;;;;1999.90;999.90;;;;;;;;;;4986076;28;20243;-72
2022/12/21 13:12:26;;;;;;;1999.90;999.90;;;;;;;;;;4997264;28;20230;-72
2022/12/21 13:14:57;;;;;;;1999.90;999.90;;;;;;;;;;4990832;28;20230;-73
2022/12/21 13:17:30;;;;;;;1999.90;999.90;;;;;;;;;;4994423;28;20248;-71
2022/12/21 13:20:00;;;;;;;1999.90;999.90;;;;;;;;;;5015011;28;20265;-69
2022/12/21 13:22:30;;;;;;;1999.90;999.90;;;;;;;;;;4983544;28;20226;-73
2022/12/21 13:25:00;;;;;;;1999.90;999.90;;;;;;;;;;4999923;28;20241;-70
2022/12/21 13:27:29;;;;;;;1999.90;999.90;;;;;;;;;;4999897;28;20244;-71
2022/12/21 13:30:01;;;;;;;1999.90;999.90;;;;;;;;;;4984941;28;20244;-72
2022/12/21 13:32:33;;;;;;;1999.90;999.90;;;;;;;;;;5001093;28;20230;-72
2022/12/21 13:35:07;;;;;;;1999.90;999.90;;;;;;;;;;5001683;28;20247;-73
2022/12/21 13:37:36;;;;;;;1999.90;999.90;;;;;;;;;;5006944;28;20226;-74
2022/12/21 13:40:07;;;;;;;1999.90;999.90;;;;;;;;;;5006848;28;20229;-70
2022/12/21 13:42:38;;;;;;;1999.90;999.90;;;;;;;;;;4990749;28;20612;-71
2022/12/21 13:45:12;;;;;;;1999.90;999.90;;;;;;;;;;5002690;28;20248;-73
2022/12/21 13:47:44;;;;;;;1999.90;999.90;;;;;;;;;;5002315;28;20233;-75
2022/12/21 13:50:19;;;;;;;1999.90;999.90;;;;;;;;;;5010929;28;20321;-73
2022/12/21 13:52:49;;;;;;;1999.90;999.90;;;;;;;;;;4996899;28;20301;-72
2022/12/21 13:55:27;;;;;;;1999.90;999.90;;;;;;;;;;5005612;28;20308;-73
2022/12/21 13:58:01;;;;;;;1999.90;999.90;;;;;;;;;;4999342;28;20289;-72
2022/12/21 14:00:34;;;;;;;1999.90;999.90;;;;;;;;;;5002192;28;20680;-73
2022/12/21 14:03:10;;;;;;;1999.90;999.90;;;;;;;;;;5003831;28;20237;-73
2022/12/21 14:05:43;;;;;;;1999.90;999.90;;;;;;;;;;5003709;28;20820;-73
2022/12/21 14:08:17;;;;;;;1999.90;999.90;;;;;;;;;;4991592;28;20842;-73
2022/12/21 14:10:50;;;;;;;1999.90;999.90;;;;;;;;;;4985572;28;20321;-74
2022/12/21 14:13:25;;;;;;;1999.90;999.90;;;;;;;;;;5007853;28;20241;-73